createdAt,value
2019-01-23T00:01:42.940Z,19.47
2019-01-23T00:04:30.093Z,20.63
2019-01-23T00:10:07.622Z,20.57
2019-01-23T00:12:57.979Z,19.67
2019-01-23T00:15:44.183Z,19.27
2019-01-23T00:21:34.071Z,20.43
2019-01-23T00:24:19.416Z,20.70
2019-01-23T00:27:03.278Z,20.73
2019-01-23T00:29:50.354Z,20.40
2019-01-23T00:32:35.520Z,20.90
2019-01-23T00:35:32.676Z,19.83
2019-01-23T00:46:56.545Z,20.53
2019-01-23T00:52:36.125Z,19.73
2019-01-23T00:55:30.083Z,20.13
2019-01-23T00:58:22.890Z,19.90
2019-01-23T01:01:12.356Z,28.67
2019-01-23T01:03:56.319Z,21.70
2019-01-23T01:06:48.565Z,21.10
2019-01-23T01:09:38.891Z,20.00
2019-01-23T01:15:13.347Z,20.67
2019-01-23T01:20:38.368Z,20.77
2019-01-23T01:26:34.875Z,20.50
2019-01-23T01:32:04.222Z,21.63
2019-01-23T01:34:50.026Z,19.47
2019-01-23T01:37:34.108Z,21.43
2019-01-23T01:43:48.077Z,21.47
2019-01-23T01:46:03.626Z,21.47
2019-01-23T01:48:55.665Z,22.57
2019-01-23T01:54:23.320Z,21.35
2019-01-23T01:57:09.148Z,30.00
2019-01-23T02:00:04.748Z,24.13
2019-01-23T02:11:21.907Z,21.83
2019-01-23T02:17:01.286Z,22.27
2019-01-23T02:28:16.789Z,23.17
2019-01-23T02:36:46.522Z,20.63
2019-01-23T02:42:34.918Z,23.50
2019-01-23T02:48:23.566Z,22.33
2019-01-23T02:53:28.978Z,21.60
2019-01-23T02:56:28.826Z,21.97
2019-01-23T02:59:39.380Z,21.57
2019-01-23T03:05:24.458Z,22.83
2019-01-23T03:10:30.257Z,22.20
2019-01-23T03:15:57.729Z,24.13
2019-01-23T03:18:46.410Z,21.97
2019-01-23T03:21:29.792Z,22.73
2019-01-23T03:24:14.643Z,23.37
2019-01-23T03:26:56.645Z,22.27
2019-01-23T03:29:43.198Z,22.07
2019-01-23T03:32:28.278Z,22.83
2019-01-23T03:35:15.145Z,22.43
2019-01-23T03:38:02.510Z,23.37
2019-01-23T03:43:31.448Z,22.37
2019-01-23T03:46:21.881Z,22.13
2019-01-23T03:49:05.212Z,21.77
2019-01-23T03:51:57.009Z,21.00
2019-01-23T03:54:38.279Z,23.60
2019-01-23T03:57:22.939Z,23.20
2019-01-23T04:00:05.268Z,23.07
2019-01-23T04:06:00.313Z,22.00
2019-01-23T04:11:29.497Z,22.17
2019-01-23T04:14:18.453Z,21.93
2019-01-23T04:17:00.612Z,22.43
2019-01-23T04:19:44.467Z,21.53
2019-01-23T04:22:32.924Z,21.47
2019-01-23T04:25:25.850Z,21.53
2019-01-23T04:28:14.641Z,23.17
2019-01-23T04:30:57.246Z,22.40
2019-01-23T04:33:41.905Z,22.30
2019-01-23T04:39:23.924Z,22.17
2019-01-23T04:44:04.834Z,20.33
2019-01-23T04:48:01.521Z,21.63
2019-01-23T04:53:59.922Z,21.83
2019-01-23T05:02:18.699Z,22.13
2019-01-23T05:13:48.869Z,21.87
2019-01-23T05:20:10.454Z,22.77
2019-01-23T05:25:50.892Z,23.00
2019-01-23T05:31:17.284Z,23.60
2019-01-23T05:37:14.724Z,22.17
2019-01-23T05:45:38.871Z,22.47
2019-01-23T05:48:20.566Z,23.77
2019-01-23T05:54:41.898Z,21.47
2019-01-23T05:57:35.872Z,23.10
2019-01-23T06:00:29.876Z,23.23
2019-01-23T06:03:32.207Z,24.33
2019-01-23T06:18:16.029Z,24.10
2019-01-23T06:20:55.618Z,23.90
2019-01-23T06:23:44.350Z,25.30
2019-01-23T06:27:14.232Z,22.73
2019-01-23T06:30:10.187Z,23.93
2019-01-23T06:32:49.152Z,22.83
2019-01-23T06:35:46.343Z,22.73
2019-01-23T06:41:46.194Z,23.60
2019-01-23T06:44:58.101Z,23.27
2019-01-23T06:47:59.986Z,25.23
2019-01-23T06:50:42.119Z,25.17
2019-01-23T06:56:33.151Z,24.43
2019-01-23T07:02:09.407Z,25.77
2019-01-23T07:05:02.019Z,25.27
2019-01-23T07:10:44.666Z,25.17
2019-01-23T07:16:12.364Z,29.27
2019-01-23T07:22:07.565Z,29.63
2019-01-23T07:27:41.824Z,27.77
2019-01-23T07:33:12.250Z,27.67
2019-01-23T07:35:51.794Z,25.90
2019-01-23T07:38:43.777Z,25.47
2019-01-23T07:44:13.768Z,25.90
2019-01-23T07:47:07.613Z,26.83
2019-01-23T07:49:51.849Z,27.53
2019-01-23T07:52:37.969Z,26.33
2019-01-23T07:55:26.230Z,25.97
2019-01-23T07:58:18.660Z,25.63
2019-01-23T08:01:14.114Z,25.23
2019-01-23T08:04:06.452Z,26.00
2019-01-23T08:09:57.285Z,25.67
2019-01-23T08:13:13.612Z,27.27
2019-01-23T08:15:34.593Z,26.90
2019-01-23T08:21:19.737Z,28.23
2019-01-23T08:30:30.456Z,25.20
2019-01-23T08:36:02.983Z,26.03
2019-01-23T08:38:53.859Z,24.63
2019-01-23T08:51:40.721Z,25.27
2019-01-23T08:54:22.588Z,24.87
2019-01-23T09:00:27.150Z,24.97
2019-01-23T09:09:14.322Z,23.03
2019-01-23T09:27:16.751Z,24.53
2019-01-23T09:33:08.338Z,24.37
2019-01-23T09:38:52.281Z,25.57
2019-01-23T09:42:02.137Z,24.00
2019-01-23T09:44:48.754Z,24.43
2019-01-23T09:53:57.940Z,24.10
2019-01-23T09:59:40.163Z,22.63
2019-01-23T10:02:14.156Z,24.23
2019-01-23T10:05:25.559Z,24.40
2019-01-23T10:11:04.396Z,23.13
2019-01-23T10:13:56.520Z,23.17
2019-01-23T10:16:34.007Z,23.20
2019-01-23T10:19:08.054Z,22.83
2019-01-23T10:22:05.053Z,24.10
2019-01-23T10:24:45.908Z,23.27
2019-01-23T10:27:25.330Z,25.03
2019-01-23T10:30:11.442Z,23.77
2019-01-23T10:32:51.642Z,25.03
2019-01-23T10:35:30.480Z,23.17
2019-01-23T10:38:13.926Z,25.13
2019-01-23T10:40:53.606Z,24.43
2019-01-23T10:43:35.439Z,23.50
2019-01-23T10:46:14.327Z,23.97
2019-01-23T10:48:48.923Z,22.67
2019-01-23T10:51:28.232Z,23.03
2019-01-23T10:54:04.953Z,24.03
2019-01-23T10:56:40.145Z,23.03
2019-01-23T10:59:16.335Z,22.83
2019-01-23T11:01:48.124Z,23.57
2019-01-23T11:04:20.203Z,23.43
2019-01-23T11:07:03.390Z,23.97
2019-01-23T11:09:37.192Z,22.47
2019-01-23T11:12:12.144Z,21.43
2019-01-23T11:14:47.514Z,21.53
2019-01-23T11:17:21.531Z,19.80
2019-01-23T11:19:57.501Z,22.03
2019-01-23T11:22:35.889Z,22.47
2019-01-23T11:25:08.594Z,21.70
2019-01-23T11:27:39.460Z,23.30
2019-01-23T11:30:31.996Z,21.80
2019-01-23T11:33:04.173Z,22.20
2019-01-23T11:35:38.331Z,22.13
2019-01-23T11:38:15.331Z,19.93
2019-01-23T11:40:47.813Z,19.27
2019-01-23T11:43:39.936Z,19.63
2019-01-23T11:46:30.933Z,19.40
2019-01-23T11:49:02.568Z,18.97
2019-01-23T11:51:53.702Z,19.70
2019-01-23T11:55:45.721Z,19.83
2019-01-23T11:57:08.522Z,19.73
2019-01-23T12:00:01.010Z,20.27
2019-01-23T12:02:33.812Z,19.90
2019-01-23T12:05:07.223Z,20.67
2019-01-23T12:07:39.539Z,21.30
2019-01-23T12:13:35.070Z,20.03
2019-01-23T12:16:08.573Z,20.37
2019-01-23T12:18:56.770Z,21.63
2019-01-23T12:24:13.952Z,21.07
2019-01-23T12:26:49.940Z,21.63
2019-01-23T12:29:40.997Z,21.63
2019-01-23T12:35:09.669Z,20.67
2019-01-23T12:37:43.083Z,21.37
2019-01-23T12:40:15.493Z,22.10
2019-01-23T12:42:47.080Z,22.17
2019-01-23T12:45:23.104Z,21.73
2019-01-23T12:47:56.926Z,21.77
2019-01-23T12:50:46.894Z,20.57
2019-01-23T12:53:20.179Z,22.57
2019-01-23T12:55:53.506Z,20.87
2019-01-23T12:58:43.523Z,21.83
2019-01-23T13:01:15.632Z,21.13
2019-01-23T13:03:47.545Z,20.63
2019-01-23T13:06:20.474Z,23.53
2019-01-23T13:09:10.538Z,22.83
2019-01-23T13:11:55.135Z,21.77
2019-01-23T13:14:38.926Z,23.30
2019-01-23T13:17:10.505Z,21.80
2019-01-23T13:19:41.954Z,22.33
2019-01-23T13:22:33.595Z,21.63
2019-01-23T13:25:20.538Z,22.63
2019-01-23T13:28:03.275Z,22.53
2019-01-23T13:33:36.559Z,21.67
2019-01-23T13:36:09.609Z,21.70
2019-01-23T13:38:42.577Z,23.83
2019-01-23T13:41:14.671Z,24.07
2019-01-23T13:44:05.275Z,22.77
2019-01-23T13:49:20.367Z,23.43
2019-01-23T13:51:51.614Z,20.83
2019-01-23T13:54:23.247Z,22.60
2019-01-23T13:56:54.898Z,22.47
2019-01-23T13:59:29.190Z,23.30
2019-01-23T14:02:19.563Z,22.73
2019-01-23T14:04:51.798Z,21.60
2019-01-23T14:11:06.868Z,23.50
2019-01-23T14:16:22.960Z,24.40
2019-01-23T14:19:13.188Z,23.40
2019-01-23T14:21:45.522Z,22.97
2019-01-23T14:24:18.469Z,23.53
2019-01-23T14:27:08.431Z,24.43
2019-01-23T14:29:40.479Z,24.33
2019-01-23T14:32:30.538Z,24.93
2019-01-23T14:35:03.036Z,23.30
2019-01-23T14:38:00.346Z,24.17
2019-01-23T14:40:26.584Z,22.83
2019-01-23T14:42:59.652Z,23.67
2019-01-23T14:45:49.899Z,24.10
2019-01-23T14:48:21.783Z,23.07
2019-01-23T14:51:12.155Z,23.87
2019-01-23T14:53:54.871Z,22.80
2019-01-23T14:56:26.652Z,22.83
2019-01-23T14:59:16.577Z,23.80
2019-01-23T15:01:49.368Z,24.70
2019-01-23T15:04:43.373Z,23.47
2019-01-23T15:07:19.756Z,23.70
2019-01-23T15:12:38.214Z,23.07
2019-01-23T15:15:10.728Z,23.97
2019-01-23T15:17:42.919Z,25.37
2019-01-23T15:20:37.338Z,25.60
2019-01-23T15:23:10.056Z,23.77
2019-01-23T15:26:02.032Z,25.17
2019-01-23T15:28:35.105Z,24.03
2019-01-23T15:31:07.053Z,24.80
2019-01-23T15:33:40.147Z,23.43
2019-01-23T15:36:12.758Z,24.67
2019-01-23T15:41:34.485Z,24.37
2019-01-23T15:44:08.272Z,24.73
2019-01-23T15:46:41.314Z,24.60
2019-01-23T15:49:31.687Z,24.87
2019-01-23T15:52:05.377Z,23.50
2019-01-23T15:54:36.563Z,22.80
2019-01-23T15:57:10.454Z,24.30
2019-01-23T16:02:34.824Z,24.23
2019-01-23T16:05:28.287Z,24.13
2019-01-23T16:08:05.185Z,24.33
2019-01-23T16:10:36.728Z,23.50
2019-01-23T16:13:29.511Z,22.07
2019-01-23T16:16:04.176Z,23.57
2019-01-23T16:18:39.023Z,22.77
2019-01-23T16:21:13.573Z,23.90
2019-01-23T16:23:44.822Z,24.60
2019-01-23T16:26:17.511Z,23.67
2019-01-23T16:28:52.708Z,24.67
2019-01-23T16:31:23.858Z,25.27
2019-01-23T16:33:57.957Z,22.63
2019-01-23T16:36:32.023Z,23.97
2019-01-23T16:39:06.970Z,24.60
2019-01-23T16:41:40.070Z,22.47
2019-01-23T16:44:12.024Z,21.43
2019-01-23T16:46:44.112Z,22.80
2019-01-23T16:49:15.965Z,22.00
2019-01-23T16:51:51.390Z,22.43
2019-01-23T16:54:21.857Z,23.97
2019-01-23T16:56:53.543Z,22.77
2019-01-23T16:59:24.854Z,22.03
2019-01-23T17:01:57.724Z,24.53
2019-01-23T17:04:33.340Z,22.50
2019-01-23T17:07:05.166Z,22.00
2019-01-23T17:09:36.779Z,22.77
2019-01-23T17:12:09.911Z,22.80
2019-01-23T17:14:45.069Z,22.93
2019-01-23T17:17:18.987Z,23.57
2019-01-23T17:19:50.601Z,24.07
2019-01-23T17:22:24.457Z,23.53
2019-01-23T17:24:57.248Z,23.63
2019-01-23T17:27:29.699Z,24.67
2019-01-23T17:30:20.402Z,24.73
2019-01-23T17:32:53.366Z,24.10
2019-01-23T17:35:44.713Z,33.42
2019-01-23T17:38:37.044Z,25.17
2019-01-23T17:41:13.181Z,23.20
2019-01-23T17:43:49.073Z,25.67
2019-01-23T17:46:21.086Z,23.93
2019-01-23T17:48:57.400Z,22.37
2019-01-23T17:51:35.376Z,23.50
2019-01-23T17:54:09.234Z,24.03
2019-01-23T17:56:44.590Z,23.37
2019-01-23T17:59:36.386Z,23.00
2019-01-23T18:02:10.917Z,21.90
2019-01-23T18:05:22.155Z,23.33
2019-01-23T18:08:34.867Z,21.80
2019-01-23T18:14:38.646Z,34.35
2019-01-23T18:17:58.671Z,25.57
2019-01-23T18:20:32.877Z,31.68
2019-01-23T18:25:59.667Z,24.73
2019-01-23T18:31:57.371Z,22.90
2019-01-23T18:35:00.827Z,23.67
2019-01-23T18:37:43.775Z,23.50
2019-01-23T18:43:38.939Z,33.53
2019-01-23T18:46:51.436Z,23.53
2019-01-23T18:49:38.744Z,24.07
2019-01-23T18:52:33.557Z,22.57
2019-01-23T18:55:20.146Z,23.70
2019-01-23T18:58:11.473Z,23.20
2019-01-23T19:10:24.065Z,22.90
2019-01-23T19:15:58.788Z,23.73
2019-01-23T19:21:55.459Z,25.77
2019-01-23T19:27:32.538Z,24.80
2019-01-23T19:36:44.115Z,25.20
2019-01-23T19:42:22.438Z,26.17
2019-01-23T19:47:59.808Z,26.47
2019-01-23T19:53:52.578Z,30.10
2019-01-23T19:56:43.233Z,30.03
2019-01-23T19:59:28.158Z,30.33
2019-01-23T20:02:15.285Z,29.67
2019-01-23T20:05:05.301Z,24.97
2019-01-23T20:10:34.781Z,23.17
2019-01-23T20:13:29.525Z,24.80
2019-01-23T20:16:18.339Z,25.53
2019-01-23T20:21:49.409Z,25.20
2019-01-23T20:24:34.081Z,27.33
2019-01-23T20:28:42.928Z,26.73
2019-01-23T20:38:48.493Z,24.00
2019-01-23T20:45:33.065Z,21.00
2019-01-23T20:50:45.395Z,21.37
2019-01-23T20:56:45.611Z,18.57
2019-01-23T20:59:37.339Z,18.67
2019-01-23T21:02:20.990Z,19.43
2019-01-23T21:05:11.359Z,19.17
2019-01-23T21:08:01.273Z,17.60
2019-01-23T21:13:30.068Z,17.77
2019-01-23T21:19:11.930Z,16.80
2019-01-23T21:24:32.317Z,17.07
2019-01-23T21:27:48.886Z,18.90
2019-01-23T21:30:33.626Z,18.13
2019-01-23T21:33:19.364Z,18.87
2019-01-23T21:36:03.427Z,19.67
2019-01-23T21:41:57.723Z,18.40
2019-01-23T21:47:25.992Z,18.97
2019-01-23T21:53:12.955Z,19.20
2019-01-23T21:59:03.368Z,19.73
2019-01-23T22:04:39.466Z,19.93
2019-01-23T22:07:25.001Z,19.63
2019-01-23T22:10:14.258Z,19.57
2019-01-23T22:13:04.595Z,19.23
2019-01-23T22:15:46.603Z,19.70
2019-01-23T22:18:31.654Z,19.27
2019-01-23T22:21:16.286Z,20.03
2019-01-23T22:27:18.596Z,18.77
2019-01-23T22:30:05.126Z,18.97
2019-01-23T22:32:48.061Z,19.20
2019-01-23T22:35:34.370Z,20.23
2019-01-23T22:41:12.870Z,18.83
2019-01-23T22:44:05.154Z,20.60
2019-01-23T22:46:49.591Z,20.50
2019-01-23T22:49:36.807Z,18.70
2019-01-23T22:52:19.053Z,20.30
2019-01-23T22:55:04.271Z,20.07
2019-01-23T22:57:46.755Z,20.03
2019-01-23T23:03:35.099Z,21.67
2019-01-23T23:06:28.795Z,20.73
2019-01-23T23:09:10.730Z,21.00
2019-01-23T23:14:59.282Z,21.50
2019-01-23T23:20:31.410Z,20.27
2019-01-23T23:26:05.989Z,21.57
2019-01-23T23:28:51.108Z,20.00
2019-01-23T23:31:34.809Z,20.57
2019-01-23T23:37:27.895Z,21.33
2019-01-23T23:40:11.217Z,20.83
2019-01-23T23:42:54.581Z,20.83
2019-01-23T23:45:37.891Z,21.10
2019-01-23T23:48:19.677Z,20.03
2019-01-23T23:54:15.410Z,18.83
2019-01-23T23:56:59.406Z,19.97
2019-01-23T23:59:44.492Z,20.23
